sensor_id;sensor_type;location;lat;lon;timestamp;P1;durP1;ratioP1;P2;durP2;ratioP2
6342;SDS011;3204;42.698;23.298;2022-07-11T00:01:33;2.10;;;2.00;;
6342;SDS011;3204;42.698;23.298;2022-07-11T00:03:59;2.88;;;2.78;;
6342;SDS011;3204;42.698;23.298;2022-07-11T00:06:24;2.17;;;2.08;;
6342;SDS011;3204;42.698;23.298;2022-07-11T00:08:50;2.20;;;1.70;;
6342;SDS011;3204;42.698;23.298;2022-07-11T00:11:15;2.03;;;1.92;;
6342;SDS011;3204;42.698;23.298;2022-07-11T00:13:41;2.08;;;1.98;;
6342;SDS011;3204;42.698;23.298;2022-07-11T00:16:06;2.53;;;2.40;;
6342;SDS011;3204;42.698;23.298;2022-07-11T00:18:32;2.10;;;1.88;;
6342;SDS011;3204;42.698;23.298;2022-07-11T00:20:58;2.20;;;2.10;;
6342;SDS011;3204;42.698;23.298;2022-07-11T00:23:23;1.92;;;1.83;;
6342;SDS011;3204;42.698;23.298;2022-07-11T00:25:49;2.75;;;2.20;;
6342;SDS011;3204;42.698;23.298;2022-07-11T00:28:14;1.90;;;1.80;;
6342;SDS011;3204;42.698;23.298;2022-07-11T00:30:40;1.95;;;1.80;;
6342;SDS011;3204;42.698;23.298;2022-07-11T00:33:05;2.15;;;2.05;;
6342;SDS011;3204;42.698;23.298;2022-07-11T00:35:31;2.00;;;1.90;;
6342;SDS011;3204;42.698;23.298;2022-07-11T00:37:56;2.00;;;1.90;;
6342;SDS011;3204;42.698;23.298;2022-07-11T00:40:22;1.90;;;1.80;;
6342;SDS011;3204;42.698;23.298;2022-07-11T00:42:48;2.05;;;1.90;;
6342;SDS011;3204;42.698;23.298;2022-07-11T00:45:13;2.72;;;2.10;;
6342;SDS011;3204;42.698;23.298;2022-07-11T00:47:39;4.55;;;2.00;;
6342;SDS011;3204;42.698;23.298;2022-07-11T00:50:04;2.63;;;1.92;;
6342;SDS011;3204;42.698;23.298;2022-07-11T00:52:30;1.83;;;1.75;;
6342;SDS011;3204;42.698;23.298;2022-07-11T00:54:57;1.83;;;1.83;;
6342;SDS011;3204;42.698;23.298;2022-07-11T00:57:23;2.15;;;2.05;;
6342;SDS011;3204;42.698;23.298;2022-07-11T00:59:49;2.70;;;1.95;;
6342;SDS011;3204;42.698;23.298;2022-07-11T01:02:15;2.10;;;1.90;;
6342;SDS011;3204;42.698;23.298;2022-07-11T01:04:41;2.10;;;2.00;;
6342;SDS011;3204;42.698;23.298;2022-07-11T01:07:06;2.28;;;2.17;;
6342;SDS011;3204;42.698;23.298;2022-07-11T01:09:32;2.20;;;2.10;;
6342;SDS011;3204;42.698;23.298;2022-07-11T01:11:57;2.13;;;2.03;;
6342;SDS011;3204;42.698;23.298;2022-07-11T01:14:23;2.10;;;2.00;;
6342;SDS011;3204;42.698;23.298;2022-07-11T01:16:49;2.20;;;2.10;;
6342;SDS011;3204;42.698;23.298;2022-07-11T01:19:16;2.03;;;1.92;;
6342;SDS011;3204;42.698;23.298;2022-07-11T01:21:43;3.08;;;2.90;;
6342;SDS011;3204;42.698;23.298;2022-07-11T01:24:12;2.15;;;2.05;;
6342;SDS011;3204;42.698;23.298;2022-07-11T01:26:38;2.30;;;2.08;;
6342;SDS011;3204;42.698;23.298;2022-07-11T01:29:04;2.85;;;2.30;;
6342;SDS011;3204;42.698;23.298;2022-07-11T01:31:31;1.98;;;1.88;;
6342;SDS011;3204;42.698;23.298;2022-07-11T01:33:57;1.92;;;1.67;;
6342;SDS011;3204;42.698;23.298;2022-07-11T01:36:23;2.30;;;2.20;;
6342;SDS011;3204;42.698;23.298;2022-07-11T01:38:48;2.08;;;1.92;;
6342;SDS011;3204;42.698;23.298;2022-07-11T01:41:14;2.42;;;2.20;;
6342;SDS011;3204;42.698;23.298;2022-07-11T01:43:39;2.15;;;2.00;;
6342;SDS011;3204;42.698;23.298;2022-07-11T01:46:05;2.47;;;2.25;;
6342;SDS011;3204;42.698;23.298;2022-07-11T01:48:31;2.30;;;2.20;;
6342;SDS011;3204;42.698;23.298;2022-07-11T01:50:56;2.08;;;1.92;;
6342;SDS011;3204;42.698;23.298;2022-07-11T01:53:22;2.20;;;2.10;;
6342;SDS011;3204;42.698;23.298;2022-07-11T01:55:47;2.03;;;1.92;;
6342;SDS011;3204;42.698;23.298;2022-07-11T01:58:13;2.03;;;1.80;;
6342;SDS011;3204;42.698;23.298;2022-07-11T02:00:38;5.20;;;1.70;;
6342;SDS011;3204;42.698;23.298;2022-07-11T02:03:04;1.67;;;1.63;;
6342;SDS011;3204;42.698;23.298;2022-07-11T02:05:30;3.53;;;2.30;;
6342;SDS011;3204;42.698;23.298;2022-07-11T02:07:55;2.95;;;1.70;;
6342;SDS011;3204;42.698;23.298;2022-07-11T02:10:41;1.90;;;1.80;;
6342;SDS011;3204;42.698;23.298;2022-07-11T02:13:11;2.10;;;2.00;;
6342;SDS011;3204;42.698;23.298;2022-07-11T02:15:38;1.70;;;1.60;;
6342;SDS011;3204;42.698;23.298;2022-07-11T02:18:04;1.98;;;1.88;;
6342;SDS011;3204;42.698;23.298;2022-07-11T02:20:30;1.75;;;1.65;;
6342;SDS011;3204;42.698;23.298;2022-07-11T02:22:57;2.50;;;2.40;;
6342;SDS011;3204;42.698;23.298;2022-07-11T02:25:23;2.58;;;2.17;;
6342;SDS011;3204;42.698;23.298;2022-07-11T02:27:49;1.95;;;1.73;;
6342;SDS011;3204;42.698;23.298;2022-07-11T02:30:15;1.90;;;1.80;;
6342;SDS011;3204;42.698;23.298;2022-07-11T02:32:40;1.88;;;1.77;;
6342;SDS011;3204;42.698;23.298;2022-07-11T02:35:06;1.80;;;1.80;;
6342;SDS011;3204;42.698;23.298;2022-07-11T02:37:33;2.10;;;2.00;;
6342;SDS011;3204;42.698;23.298;2022-07-11T02:39:58;2.10;;;2.00;;
6342;SDS011;3204;42.698;23.298;2022-07-11T02:42:24;1.90;;;1.80;;
6342;SDS011;3204;42.698;23.298;2022-07-11T02:44:49;2.15;;;2.05;;
6342;SDS011;3204;42.698;23.298;2022-07-11T02:47:15;3.78;;;1.60;;
6342;SDS011;3204;42.698;23.298;2022-07-11T02:49:40;3.60;;;1.88;;
6342;SDS011;3204;42.698;23.298;2022-07-11T02:52:06;1.73;;;1.63;;
6342;SDS011;3204;42.698;23.298;2022-07-11T02:54:32;2.70;;;1.80;;
6342;SDS011;3204;42.698;23.298;2022-07-11T02:56:58;2.30;;;2.00;;
6342;SDS011;3204;42.698;23.298;2022-07-11T02:59:24;2.10;;;2.00;;
6342;SDS011;3204;42.698;23.298;2022-07-11T03:01:49;2.53;;;2.00;;
6342;SDS011;3204;42.698;23.298;2022-07-11T03:04:15;2.40;;;2.13;;
6342;SDS011;3204;42.698;23.298;2022-07-11T03:06:41;2.67;;;2.25;;
6342;SDS011;3204;42.698;23.298;2022-07-11T03:09:08;2.70;;;2.17;;
6342;SDS011;3204;42.698;23.298;2022-07-11T03:11:34;2.08;;;1.98;;
6342;SDS011;3204;42.698;23.298;2022-07-11T03:14:00;1.88;;;1.77;;
6342;SDS011;3204;42.698;23.298;2022-07-11T03:16:26;2.10;;;2.00;;
6342;SDS011;3204;42.698;23.298;2022-07-11T03:18:52;3.63;;;1.98;;
6342;SDS011;3204;42.698;23.298;2022-07-11T03:21:18;3.20;;;2.20;;
6342;SDS011;3204;42.698;23.298;2022-07-11T03:23:43;4.10;;;2.10;;
6342;SDS011;3204;42.698;23.298;2022-07-11T03:26:09;3.85;;;2.25;;
6342;SDS011;3204;42.698;23.298;2022-07-11T03:28:34;2.90;;;2.30;;
6342;SDS011;3204;42.698;23.298;2022-07-11T03:31:00;2.40;;;2.17;;
6342;SDS011;3204;42.698;23.298;2022-07-11T03:33:25;3.47;;;2.40;;
6342;SDS011;3204;42.698;23.298;2022-07-11T03:35:52;2.50;;;2.30;;
6342;SDS011;3204;42.698;23.298;2022-07-11T03:38:18;2.55;;;2.10;;
6342;SDS011;3204;42.698;23.298;2022-07-11T03:40:45;2.60;;;2.40;;
6342;SDS011;3204;42.698;23.298;2022-07-11T03:43:12;4.72;;;2.22;;
6342;SDS011;3204;42.698;23.298;2022-07-11T03:45:38;2.20;;;2.00;;
6342;SDS011;3204;42.698;23.298;2022-07-11T03:48:04;3.25;;;2.58;;
6342;SDS011;3204;42.698;23.298;2022-07-11T03:50:30;2.20;;;2.10;;
6342;SDS011;3204;42.698;23.298;2022-07-11T03:52:56;2.28;;;2.10;;
6342;SDS011;3204;42.698;23.298;2022-07-11T03:55:22;3.35;;;2.53;;
6342;SDS011;3204;42.698;23.298;2022-07-11T03:57:47;4.65;;;2.40;;
6342;SDS011;3204;42.698;23.298;2022-07-11T04:00:13;2.67;;;2.20;;
6342;SDS011;3204;42.698;23.298;2022-07-11T04:02:39;2.67;;;2.28;;
6342;SDS011;3204;42.698;23.298;2022-07-11T04:05:05;2.53;;;2.40;;
6342;SDS011;3204;42.698;23.298;2022-07-11T04:07:31;2.92;;;2.83;;
6342;SDS011;3204;42.698;23.298;2022-07-11T04:09:57;3.20;;;2.40;;
6342;SDS011;3204;42.698;23.298;2022-07-11T04:12:22;2.25;;;2.15;;
6342;SDS011;3204;42.698;23.298;2022-07-11T04:14:49;2.00;;;1.90;;
6342;SDS011;3204;42.698;23.298;2022-07-11T04:17:14;2.53;;;2.38;;
6342;SDS011;3204;42.698;23.298;2022-07-11T04:19:40;2.30;;;2.20;;
6342;SDS011;3204;42.698;23.298;2022-07-11T04:22:07;2.50;;;2.40;;
6342;SDS011;3204;42.698;23.298;2022-07-11T04:24:33;2.38;;;2.17;;
6342;SDS011;3204;42.698;23.298;2022-07-11T04:26:59;2.50;;;2.40;;
6342;SDS011;3204;42.698;23.298;2022-07-11T04:29:24;2.35;;;2.15;;
6342;SDS011;3204;42.698;23.298;2022-07-11T04:31:50;2.33;;;2.22;;
6342;SDS011;3204;42.698;23.298;2022-07-11T04:34:16;2.70;;;2.50;;
6342;SDS011;3204;42.698;23.298;2022-07-11T04:36:42;2.88;;;2.67;;
6342;SDS011;3204;42.698;23.298;2022-07-11T04:39:10;2.80;;;2.60;;
6342;SDS011;3204;42.698;23.298;2022-07-11T04:41:35;2.45;;;2.35;;
6342;SDS011;3204;42.698;23.298;2022-07-11T04:44:01;2.17;;;2.08;;
6342;SDS011;3204;42.698;23.298;2022-07-11T04:46:27;2.78;;;2.58;;
6342;SDS011;3204;42.698;23.298;2022-07-11T04:48:54;2.72;;;2.53;;
6342;SDS011;3204;42.698;23.298;2022-07-11T04:51:20;3.13;;;2.38;;
6342;SDS011;3204;42.698;23.298;2022-07-11T04:53:45;2.22;;;2.13;;
6342;SDS011;3204;42.698;23.298;2022-07-11T04:56:11;5.43;;;3.50;;
6342;SDS011;3204;42.698;23.298;2022-07-11T04:58:37;4.57;;;3.35;;
6342;SDS011;3204;42.698;23.298;2022-07-11T05:01:03;2.75;;;2.55;;
6342;SDS011;3204;42.698;23.298;2022-07-11T05:03:29;2.47;;;2.28;;
6342;SDS011;3204;42.698;23.298;2022-07-11T05:05:54;2.78;;;2.67;;
6342;SDS011;3204;42.698;23.298;2022-07-11T05:08:20;2.60;;;2.40;;
6342;SDS011;3204;42.698;23.298;2022-07-11T05:10:46;4.20;;;2.50;;
6342;SDS011;3204;42.698;23.298;2022-07-11T05:13:13;2.72;;;2.53;;
6342;SDS011;3204;42.698;23.298;2022-07-11T05:15:38;2.58;;;2.47;;
6342;SDS011;3204;42.698;23.298;2022-07-11T05:18:04;3.70;;;2.75;;
6342;SDS011;3204;42.698;23.298;2022-07-11T05:20:30;3.20;;;2.60;;
6342;SDS011;3204;42.698;23.298;2022-07-11T05:22:57;2.85;;;2.65;;
6342;SDS011;3204;42.698;23.298;2022-07-11T05:25:23;2.58;;;2.38;;
6342;SDS011;3204;42.698;23.298;2022-07-11T05:27:48;3.63;;;2.95;;
6342;SDS011;3204;42.698;23.298;2022-07-11T05:30:14;2.40;;;2.30;;
6342;SDS011;3204;42.698;23.298;2022-07-11T05:32:40;3.17;;;2.90;;
6342;SDS011;3204;42.698;23.298;2022-07-11T05:35:05;4.28;;;2.70;;
6342;SDS011;3204;42.698;23.298;2022-07-11T05:37:31;3.05;;;2.40;;
6342;SDS011;3204;42.698;23.298;2022-07-11T05:39:57;2.70;;;2.15;;
6342;SDS011;3204;42.698;23.298;2022-07-11T05:42:22;3.67;;;2.40;;
6342;SDS011;3204;42.698;23.298;2022-07-11T05:44:48;3.55;;;2.50;;
6342;SDS011;3204;42.698;23.298;2022-07-11T05:47:14;1.80;;;1.70;;
6342;SDS011;3204;42.698;23.298;2022-07-11T05:49:40;2.22;;;2.13;;
6342;SDS011;3204;42.698;23.298;2022-07-11T05:52:06;1.70;;;1.60;;
6342;SDS011;3204;42.698;23.298;2022-07-11T05:54:32;2.45;;;2.25;;
6342;SDS011;3204;42.698;23.298;2022-07-11T05:56:57;2.10;;;2.00;;
6342;SDS011;3204;42.698;23.298;2022-07-11T05:59:23;1.92;;;1.75;;
6342;SDS011;3204;42.698;23.298;2022-07-11T06:01:48;3.53;;;1.88;;
6342;SDS011;3204;42.698;23.298;2022-07-11T06:04:14;3.03;;;1.67;;
6342;SDS011;3204;42.698;23.298;2022-07-11T06:06:39;1.63;;;1.52;;
6342;SDS011;3204;42.698;23.298;2022-07-11T06:09:05;1.60;;;1.50;;
6342;SDS011;3204;42.698;23.298;2022-07-11T06:11:31;3.05;;;1.25;;
6342;SDS011;3204;42.698;23.298;2022-07-11T06:13:57;4.03;;;1.40;;
6342;SDS011;3204;42.698;23.298;2022-07-11T06:16:22;2.70;;;1.48;;
6342;SDS011;3204;42.698;23.298;2022-07-11T06:18:48;1.30;;;1.20;;
6342;SDS011;3204;42.698;23.298;2022-07-11T06:21:13;2.35;;;1.65;;
6342;SDS011;3204;42.698;23.298;2022-07-11T06:23:39;1.50;;;1.40;;
6342;SDS011;3204;42.698;23.298;2022-07-11T06:26:05;1.65;;;1.55;;
6342;SDS011;3204;42.698;23.298;2022-07-11T06:28:31;1.52;;;1.23;;
6342;SDS011;3204;42.698;23.298;2022-07-11T06:30:57;4.90;;;1.77;;
6342;SDS011;3204;42.698;23.298;2022-07-11T06:33:22;7.10;;;1.50;;
6342;SDS011;3204;42.698;23.298;2022-07-11T06:35:48;1.40;;;1.08;;
6342;SDS011;3204;42.698;23.298;2022-07-11T06:38:15;2.10;;;1.40;;
6342;SDS011;3204;42.698;23.298;2022-07-11T06:40:41;2.20;;;1.48;;
6342;SDS011;3204;42.698;23.298;2022-07-11T06:43:10;1.75;;;1.65;;
6342;SDS011;3204;42.698;23.298;2022-07-11T06:45:36;1.30;;;1.30;;
6342;SDS011;3204;42.698;23.298;2022-07-11T06:48:02;2.35;;;1.40;;
6342;SDS011;3204;42.698;23.298;2022-07-11T06:50:29;2.13;;;1.40;;
6342;SDS011;3204;42.698;23.298;2022-07-11T06:52:56;1.60;;;1.25;;
6342;SDS011;3204;42.698;23.298;2022-07-11T06:55:21;7.93;;;1.35;;
6342;SDS011;3204;42.698;23.298;2022-07-11T06:57:47;1.50;;;1.38;;
6342;SDS011;3204;42.698;23.298;2022-07-11T07:00:15;1.27;;;1.17;;
6342;SDS011;3204;42.698;23.298;2022-07-11T07:02:41;1.73;;;1.10;;
6342;SDS011;3204;42.698;23.298;2022-07-11T07:05:07;1.75;;;1.35;;
6342;SDS011;3204;42.698;23.298;2022-07-11T07:07:34;1.58;;;1.13;;
6342;SDS011;3204;42.698;23.298;2022-07-11T07:10:00;4.93;;;1.60;;
6342;SDS011;3204;42.698;23.298;2022-07-11T07:12:25;2.55;;;1.40;;
6342;SDS011;3204;42.698;23.298;2022-07-11T07:14:51;1.35;;;1.25;;
6342;SDS011;3204;42.698;23.298;2022-07-11T07:17:16;7.53;;;1.33;;
6342;SDS011;3204;42.698;23.298;2022-07-11T07:19:42;1.50;;;1.40;;
6342;SDS011;3204;42.698;23.298;2022-07-11T07:22:08;3.00;;;1.05;;
6342;SDS011;3204;42.698;23.298;2022-07-11T07:24:34;2.08;;;1.73;;
6342;SDS011;3204;42.698;23.298;2022-07-11T07:27:01;2.58;;;1.10;;
6342;SDS011;3204;42.698;23.298;2022-07-11T07:29:27;3.55;;;1.00;;
6342;SDS011;3204;42.698;23.298;2022-07-11T07:31:53;1.10;;;1.00;;
6342;SDS011;3204;42.698;23.298;2022-07-11T07:34:19;1.45;;;1.30;;
6342;SDS011;3204;42.698;23.298;2022-07-11T07:36:45;1.20;;;1.20;;
6342;SDS011;3204;42.698;23.298;2022-07-11T07:39:10;1.20;;;1.10;;
6342;SDS011;3204;42.698;23.298;2022-07-11T07:41:36;2.45;;;1.55;;
6342;SDS011;3204;42.698;23.298;2022-07-11T07:44:03;1.98;;;0.90;;
6342;SDS011;3204;42.698;23.298;2022-07-11T07:46:29;1.50;;;1.40;;
6342;SDS011;3204;42.698;23.298;2022-07-11T07:48:55;3.60;;;1.52;;
6342;SDS011;3204;42.698;23.298;2022-07-11T07:51:20;1.88;;;1.10;;
6342;SDS011;3204;42.698;23.298;2022-07-11T07:53:46;2.97;;;1.40;;
6342;SDS011;3204;42.698;23.298;2022-07-11T07:56:12;1.45;;;1.45;;
6342;SDS011;3204;42.698;23.298;2022-07-11T07:58:38;2.88;;;1.33;;
6342;SDS011;3204;42.698;23.298;2022-07-11T08:01:04;3.13;;;1.42;;
6342;SDS011;3204;42.698;23.298;2022-07-11T08:03:49;1.65;;;1.52;;
6342;SDS011;3204;42.698;23.298;2022-07-11T08:06:15;1.88;;;1.27;;
6342;SDS011;3204;42.698;23.298;2022-07-11T08:08:40;0.98;;;0.98;;
6342;SDS011;3204;42.698;23.298;2022-07-11T08:11:06;5.25;;;1.20;;
6342;SDS011;3204;42.698;23.298;2022-07-11T08:13:31;3.13;;;1.40;;
6342;SDS011;3204;42.698;23.298;2022-07-11T08:15:57;0.95;;;0.95;;
6342;SDS011;3204;42.698;23.298;2022-07-11T08:18:23;1.15;;;1.00;;
6342;SDS011;3204;42.698;23.298;2022-07-11T08:20:48;3.72;;;1.10;;
6342;SDS011;3204;42.698;23.298;2022-07-11T08:23:13;1.35;;;0.90;;
6342;SDS011;3204;42.698;23.298;2022-07-11T08:25:40;1.50;;;1.40;;
6342;SDS011;3204;42.698;23.298;2022-07-11T08:28:05;1.80;;;1.00;;
6342;SDS011;3204;42.698;23.298;2022-07-11T08:30:31;2.30;;;1.10;;
6342;SDS011;3204;42.698;23.298;2022-07-11T08:32:57;4.68;;;1.00;;
6342;SDS011;3204;42.698;23.298;2022-07-11T08:35:22;3.20;;;0.90;;
6342;SDS011;3204;42.698;23.298;2022-07-11T08:37:48;4.13;;;1.00;;
6342;SDS011;3204;42.698;23.298;2022-07-11T08:40:14;5.05;;;1.15;;
6342;SDS011;3204;42.698;23.298;2022-07-11T08:42:40;3.50;;;1.10;;
6342;SDS011;3204;42.698;23.298;2022-07-11T08:45:10;1.33;;;0.93;;
6342;SDS011;3204;42.698;23.298;2022-07-11T08:47:40;6.00;;;1.27;;
6342;SDS011;3204;42.698;23.298;2022-07-11T08:50:06;1.92;;;1.10;;
6342;SDS011;3204;42.698;23.298;2022-07-11T08:52:32;2.95;;;0.98;;
6342;SDS011;3204;42.698;23.298;2022-07-11T08:54:58;1.13;;;1.02;;
6342;SDS011;3204;42.698;23.298;2022-07-11T08:57:24;1.42;;;1.00;;
6342;SDS011;3204;42.698;23.298;2022-07-11T08:59:53;3.00;;;0.90;;
6342;SDS011;3204;42.698;23.298;2022-07-11T09:02:20;1.65;;;0.77;;
6342;SDS011;3204;42.698;23.298;2022-07-11T09:04:48;1.48;;;0.80;;
6342;SDS011;3204;42.698;23.298;2022-07-11T09:07:13;1.30;;;1.20;;
6342;SDS011;3204;42.698;23.298;2022-07-11T09:09:39;2.30;;;0.70;;
6342;SDS011;3204;42.698;23.298;2022-07-11T09:12:09;2.22;;;1.00;;
6342;SDS011;3204;42.698;23.298;2022-07-11T09:14:37;1.40;;;1.00;;
6342;SDS011;3204;42.698;23.298;2022-07-11T09:17:03;2.33;;;1.38;;
6342;SDS011;3204;42.698;23.298;2022-07-11T09:19:33;1.73;;;0.90;;
6342;SDS011;3204;42.698;23.298;2022-07-11T09:22:08;6.43;;;0.93;;
6342;SDS011;3204;42.698;23.298;2022-07-11T09:25:04;4.80;;;0.95;;
6342;SDS011;3204;42.698;23.298;2022-07-11T09:27:59;4.13;;;1.48;;
6342;SDS011;3204;42.698;23.298;2022-07-11T09:30:38;1.45;;;0.90;;
6342;SDS011;3204;42.698;23.298;2022-07-11T09:33:08;4.22;;;0.90;;
6342;SDS011;3204;42.698;23.298;2022-07-11T09:35:35;4.70;;;0.90;;
6342;SDS011;3204;42.698;23.298;2022-07-11T09:38:07;2.53;;;1.00;;
6342;SDS011;3204;42.698;23.298;2022-07-11T09:40:34;1.25;;;0.90;;
6342;SDS011;3204;42.698;23.298;2022-07-11T09:43:01;1.10;;;1.00;;
6342;SDS011;3204;42.698;23.298;2022-07-11T09:45:27;0.98;;;0.98;;
6342;SDS011;3204;42.698;23.298;2022-07-11T09:47:56;0.80;;;0.80;;
6342;SDS011;3204;42.698;23.298;2022-07-11T09:50:29;4.38;;;1.10;;
6342;SDS011;3204;42.698;23.298;2022-07-11T09:55:44;1.00;;;1.00;;
6342;SDS011;3204;42.698;23.298;2022-07-11T09:58:11;2.20;;;1.10;;
6342;SDS011;3204;42.698;23.298;2022-07-11T10:00:41;1.00;;;0.80;;
6342;SDS011;3204;42.698;23.298;2022-07-11T10:03:09;1.33;;;1.23;;
6342;SDS011;3204;42.698;23.298;2022-07-11T10:05:36;3.78;;;1.08;;
6342;SDS011;3204;42.698;23.298;2022-07-11T10:08:02;1.00;;;0.77;;
6342;SDS011;3204;42.698;23.298;2022-07-11T10:10:29;1.45;;;0.95;;
6342;SDS011;3204;42.698;23.298;2022-07-11T10:12:56;1.27;;;0.90;;
6342;SDS011;3204;42.698;23.298;2022-07-11T10:15:29;1.40;;;0.90;;
6342;SDS011;3204;42.698;23.298;2022-07-11T10:20:47;1.00;;;1.00;;
6342;SDS011;3204;42.698;23.298;2022-07-11T10:26:06;2.25;;;1.10;;
6342;SDS011;3204;42.698;23.298;2022-07-11T10:28:53;2.55;;;0.88;;
6342;SDS011;3204;42.698;23.298;2022-07-11T10:31:23;2.45;;;1.10;;
6342;SDS011;3204;42.698;23.298;2022-07-11T10:36:26;2.75;;;0.95;;
6342;SDS011;3204;42.698;23.298;2022-07-11T10:41:58;3.95;;;1.10;;
6342;SDS011;3204;42.698;23.298;2022-07-11T10:44:27;4.03;;;0.90;;
6342;SDS011;3204;42.698;23.298;2022-07-11T10:46:53;1.98;;;0.90;;
6342;SDS011;3204;42.698;23.298;2022-07-11T10:52:06;1.48;;;1.00;;
6342;SDS011;3204;42.698;23.298;2022-07-11T10:57:21;0.95;;;0.95;;
6342;SDS011;3204;42.698;23.298;2022-07-11T11:00:03;1.00;;;1.00;;
6342;SDS011;3204;42.698;23.298;2022-07-11T11:02:32;2.67;;;0.80;;
6342;SDS011;3204;42.698;23.298;2022-07-11T11:13:50;0.80;;;0.80;;
6342;SDS011;3204;42.698;23.298;2022-07-11T11:16:41;1.05;;;0.95;;
6342;SDS011;3204;42.698;23.298;2022-07-11T11:19:06;0.70;;;0.70;;
6342;SDS011;3204;42.698;23.298;2022-07-11T11:21:32;0.90;;;0.90;;
6342;SDS011;3204;42.698;23.298;2022-07-11T11:26:40;2.30;;;0.77;;
6342;SDS011;3204;42.698;23.298;2022-07-11T11:29:10;0.80;;;0.80;;
6342;SDS011;3204;42.698;23.298;2022-07-11T11:31:35;1.83;;;1.30;;
6342;SDS011;3204;42.698;23.298;2022-07-11T11:34:02;1.45;;;0.90;;
6342;SDS011;3204;42.698;23.298;2022-07-11T11:36:29;2.88;;;1.00;;
6342;SDS011;3204;42.698;23.298;2022-07-11T11:38:55;1.65;;;1.08;;
6342;SDS011;3204;42.698;23.298;2022-07-11T11:41:25;3.90;;;0.93;;
6342;SDS011;3204;42.698;23.298;2022-07-11T11:43:52;2.70;;;0.80;;
6342;SDS011;3204;42.698;23.298;2022-07-11T11:46:24;2.75;;;1.17;;
6342;SDS011;3204;42.698;23.298;2022-07-11T11:48:54;2.40;;;1.00;;
6342;SDS011;3204;42.698;23.298;2022-07-11T11:51:23;1.25;;;0.80;;
6342;SDS011;3204;42.698;23.298;2022-07-11T11:53:53;5.85;;;0.90;;
6342;SDS011;3204;42.698;23.298;2022-07-11T11:58:46;2.08;;;1.10;;
6342;SDS011;3204;42.698;23.298;2022-07-11T12:01:13;1.00;;;0.90;;
6342;SDS011;3204;42.698;23.298;2022-07-11T12:03:51;1.42;;;1.33;;
6342;SDS011;3204;42.698;23.298;2022-07-11T12:06:22;1.10;;;0.82;;
6342;SDS011;3204;42.698;23.298;2022-07-11T12:08:49;1.45;;;1.00;;
6342;SDS011;3204;42.698;23.298;2022-07-11T12:11:16;3.80;;;1.10;;
6342;SDS011;3204;42.698;23.298;2022-07-11T12:13:42;3.25;;;1.10;;
6342;SDS011;3204;42.698;23.298;2022-07-11T12:16:17;1.50;;;1.13;;
6342;SDS011;3204;42.698;23.298;2022-07-11T12:19:02;2.15;;;1.90;;
6342;SDS011;3204;42.698;23.298;2022-07-11T12:21:29;1.50;;;0.80;;
6342;SDS011;3204;42.698;23.298;2022-07-11T12:23:57;2.13;;;0.90;;
6342;SDS011;3204;42.698;23.298;2022-07-11T12:26:24;2.20;;;1.10;;
6342;SDS011;3204;42.698;23.298;2022-07-11T12:29:05;1.83;;;1.30;;
6342;SDS011;3204;42.698;23.298;2022-07-11T12:31:39;1.58;;;1.00;;
6342;SDS011;3204;42.698;23.298;2022-07-11T12:34:11;1.50;;;1.40;;
6342;SDS011;3204;42.698;23.298;2022-07-11T12:36:37;1.63;;;1.60;;
6342;SDS011;3204;42.698;23.298;2022-07-11T12:39:02;1.73;;;1.63;;
6342;SDS011;3204;42.698;23.298;2022-07-11T12:41:29;1.60;;;1.10;;
6342;SDS011;3204;42.698;23.298;2022-07-11T12:43:56;0.95;;;0.95;;
6342;SDS011;3204;42.698;23.298;2022-07-11T12:46:40;2.00;;;1.55;;
6342;SDS011;3204;42.698;23.298;2022-07-11T12:49:08;1.15;;;1.10;;
6342;SDS011;3204;42.698;23.298;2022-07-11T12:51:38;1.50;;;1.25;;
6342;SDS011;3204;42.698;23.298;2022-07-11T12:54:06;1.67;;;1.27;;
6342;SDS011;3204;42.698;23.298;2022-07-11T12:56:34;0.82;;;0.82;;
6342;SDS011;3204;42.698;23.298;2022-07-11T12:59:01;1.20;;;1.10;;
6342;SDS011;3204;42.698;23.298;2022-07-11T13:01:28;1.13;;;1.08;;
6342;SDS011;3204;42.698;23.298;2022-07-11T13:03:55;2.05;;;1.40;;
6342;SDS011;3204;42.698;23.298;2022-07-11T13:06:20;1.38;;;1.00;;
6342;SDS011;3204;42.698;23.298;2022-07-11T13:09:04;3.40;;;1.27;;
6342;SDS011;3204;42.698;23.298;2022-07-11T13:11:30;2.30;;;1.20;;
6342;SDS011;3204;42.698;23.298;2022-07-11T13:13:56;2.13;;;1.20;;
6342;SDS011;3204;42.698;23.298;2022-07-11T13:16:22;1.05;;;1.05;;
6342;SDS011;3204;42.698;23.298;2022-07-11T13:18:48;1.50;;;1.17;;
6342;SDS011;3204;42.698;23.298;2022-07-11T13:21:14;1.55;;;1.40;;
6342;SDS011;3204;42.698;23.298;2022-07-11T13:23:40;1.55;;;1.20;;
6342;SDS011;3204;42.698;23.298;2022-07-11T13:26:06;1.48;;;1.38;;
6342;SDS011;3204;42.698;23.298;2022-07-11T13:28:33;0.90;;;0.90;;
6342;SDS011;3204;42.698;23.298;2022-07-11T13:30:59;2.08;;;1.05;;
6342;SDS011;3204;42.698;23.298;2022-07-11T13:33:24;1.17;;;1.10;;
6342;SDS011;3204;42.698;23.298;2022-07-11T13:35:50;1.80;;;1.15;;
6342;SDS011;3204;42.698;23.298;2022-07-11T13:38:18;2.22;;;1.27;;
6342;SDS011;3204;42.698;23.298;2022-07-11T13:40:44;1.25;;;1.10;;
6342;SDS011;3204;42.698;23.298;2022-07-11T13:43:10;1.90;;;1.80;;
6342;SDS011;3204;42.698;23.298;2022-07-11T13:45:37;3.40;;;1.13;;
6342;SDS011;3204;42.698;23.298;2022-07-11T13:48:04;3.78;;;1.40;;
6342;SDS011;3204;42.698;23.298;2022-07-11T13:50:29;1.95;;;0.90;;
6342;SDS011;3204;42.698;23.298;2022-07-11T13:52:55;2.75;;;0.90;;
6342;SDS011;3204;42.698;23.298;2022-07-11T13:55:21;1.33;;;1.10;;
6342;SDS011;3204;42.698;23.298;2022-07-11T13:57:49;1.23;;;0.90;;
6342;SDS011;3204;42.698;23.298;2022-07-11T14:00:17;3.80;;;1.23;;
6342;SDS011;3204;42.698;23.298;2022-07-11T14:02:42;1.80;;;1.70;;
6342;SDS011;3204;42.698;23.298;2022-07-11T14:05:08;0.93;;;0.90;;
6342;SDS011;3204;42.698;23.298;2022-07-11T14:07:34;1.20;;;1.17;;
6342;SDS011;3204;42.698;23.298;2022-07-11T14:10:00;3.38;;;1.10;;
6342;SDS011;3204;42.698;23.298;2022-07-11T14:12:26;1.23;;;1.20;;
6342;SDS011;3204;42.698;23.298;2022-07-11T14:14:53;1.33;;;1.10;;
6342;SDS011;3204;42.698;23.298;2022-07-11T14:17:19;2.15;;;1.02;;
6342;SDS011;3204;42.698;23.298;2022-07-11T14:19:45;2.38;;;1.10;;
6342;SDS011;3204;42.698;23.298;2022-07-11T14:22:11;2.25;;;1.30;;
6342;SDS011;3204;42.698;23.298;2022-07-11T14:24:37;5.50;;;1.30;;
6342;SDS011;3204;42.698;23.298;2022-07-11T14:27:03;1.40;;;1.10;;
6342;SDS011;3204;42.698;23.298;2022-07-11T14:29:29;2.55;;;1.30;;
6342;SDS011;3204;42.698;23.298;2022-07-11T14:31:55;1.42;;;1.33;;
6342;SDS011;3204;42.698;23.298;2022-07-11T14:34:21;2.03;;;1.20;;
6342;SDS011;3204;42.698;23.298;2022-07-11T14:36:47;1.90;;;1.15;;
6342;SDS011;3204;42.698;23.298;2022-07-11T14:39:13;2.33;;;1.08;;
6342;SDS011;3204;42.698;23.298;2022-07-11T14:41:41;1.15;;;1.00;;
6342;SDS011;3204;42.698;23.298;2022-07-11T14:44:07;5.80;;;1.17;;
6342;SDS011;3204;42.698;23.298;2022-07-11T14:46:32;1.63;;;1.30;;
6342;SDS011;3204;42.698;23.298;2022-07-11T14:48:58;1.60;;;1.50;;
6342;SDS011;3204;42.698;23.298;2022-07-11T14:51:24;1.80;;;1.70;;
6342;SDS011;3204;42.698;23.298;2022-07-11T14:53:52;1.70;;;1.60;;
6342;SDS011;3204;42.698;23.298;2022-07-11T14:56:18;2.45;;;1.30;;
6342;SDS011;3204;42.698;23.298;2022-07-11T14:58:45;1.30;;;1.20;;
6342;SDS011;3204;42.698;23.298;2022-07-11T15:01:10;3.83;;;1.40;;
6342;SDS011;3204;42.698;23.298;2022-07-11T15:03:36;2.53;;;1.40;;
6342;SDS011;3204;42.698;23.298;2022-07-11T15:06:05;3.28;;;1.73;;
6342;SDS011;3204;42.698;23.298;2022-07-11T15:08:31;1.98;;;1.55;;
6342;SDS011;3204;42.698;23.298;2022-07-11T15:11:16;7.15;;;1.50;;
6342;SDS011;3204;42.698;23.298;2022-07-11T15:14:00;3.08;;;1.40;;
6342;SDS011;3204;42.698;23.298;2022-07-11T15:16:25;2.20;;;1.48;;
6342;SDS011;3204;42.698;23.298;2022-07-11T15:18:52;2.05;;;1.85;;
6342;SDS011;3204;42.698;23.298;2022-07-11T15:21:18;1.25;;;1.23;;
6342;SDS011;3204;42.698;23.298;2022-07-11T15:23:44;1.40;;;1.40;;
6342;SDS011;3204;42.698;23.298;2022-07-11T15:26:09;1.17;;;1.17;;
6342;SDS011;3204;42.698;23.298;2022-07-11T15:28:35;2.63;;;1.60;;
6342;SDS011;3204;42.698;23.298;2022-07-11T15:31:00;2.70;;;1.92;;
6342;SDS011;3204;42.698;23.298;2022-07-11T15:33:26;1.73;;;1.55;;